メインページ
METAR-TAF:

METAR-TAF

空港 :

アルアイン国際空港

アル・アイン, アラブ首長国連邦

緯度: 24-16N, 経度: 055-36E, 海抜: 265m

現時点の気象観測

当レポートは18分前の09:00(UTC)に作成
南/南西の風 7kt、から西の間で変化する
気温 40°C
湿度 32%
気圧 997 hPa
視程: 6000m

METAR: OMAL 230900Z 21007KT 170V270 6000 NSC 40/20 Q0997 BECMG 27008KT

時間: 13:18 (09:18 UTC)

予報

当レポートは4時間18分前の05:00(UTC)に作成
予報は23日の 06時(UTC)から 24日の 12時(UTC)まで有効
西/南西の風 6kt
視程: 7000m
確率 30%
23日の 06時(UTC)から 23日の 08時(UTC)まで
視程: 4000m
広範な塵
23日の 10時(UTC)から 23日の 12時(UTC)まで徐々に
北西の風 12kt
確率 30% :
23日の 12時(UTC)から 23日の 15時(UTC)まで一時的に
視程: 4000m
広範な塵
23日の 20時(UTC)から 23日の 22時(UTC)まで徐々に
南西の風 5kt
確率 30%
24日の 02時(UTC)から 24日の 04時(UTC)まで
視程: 4000m
煙霧
24日の 08時(UTC)から 24日の 10時(UTC)まで徐々に
西/北西の風 12kt

TAF: OMAL 230500Z 2306/2412 24006KT 7000 NSC PROB30 2306/2308 4000 DU BECMG 2310/2312 31012KT PROB30 TEMPO 2312/2315 4000 DU BECMG 2320/2322 22005KT PROB30 2402/2404 4000 HZ BECMG 2408/2410 30012KT

4,000以上の空港の気象観測と天気予報(METAR報とTAF報)

利用可能な観測所は地図上に黄色い丸と赤い丸で示す。

丸の上にカーソルを重ねると観測所名を参照できる。

次にクリックすると気象観測と天気予報を参照できる。

マップの切り替え:黒色「×」印の緑ボタンをクリックして拡大、「-」印の緑ボタンをクリックして縮小、緑色の三角印をクリックして隣りの地図に切り替え


METAR-TAF: